Time,TemperatureF,DewpointF,PressureIn,WindDirection,WindDirectionDegrees,WindSpeedMPH,WindSpeedGustMPH,Humidity,HourlyPrecipIn,Conditions,Clouds,dailyrainin,SolarRadiationWatts/m^2,SoftwareType,DateUTC
2013-01-10 00:00:00,35.4,22.1,30.44,West,270,2.6,4.6,58,0.00,CLR,,0.00,0.0,WeatherDisplay:10.37,2013-01-10 05:00:00,
2013-01-10 00:01:00,35.4,22.1,30.44,SW,225,2.2,4.6,58,0.00,CLR,,0.00,0.0,WeatherDisplay:10.37,2013-01-10 05:01:00,
2013-01-10 00:04:00,35.4,22.1,30.44,SW,225,0.0,0.0,58,0.00,CLR,,0.00,0.0,WeatherDisplay:10.37,2013-01-10 05:04:00,
2013-01-10 00:09:00,35.2,21.9,30.42,SW,225,0.0,0.0,58,0.00,CLR,,0.00,0.0,WeatherDisplay:10.37,2013-01-10 05:09:00,
2013-01-10 00:14:00,35.2,22.3,30.42,SW,225,0.0,2.3,59,0.00,CLR,,0.00,0.0,WeatherDisplay:10.37,2013-01-10 05:14:00,
2013-01-10 00:19:00,35.2,22.3,30.42,SW,225,2.2,3.5,59,0.00,CLR,,0.00,0.0,WeatherDisplay:10.37,2013-01-10 05:19:00,
2013-01-10 00:24:00,35.2,22.3,30.42,SW,225,0.0,0.0,59,0.00,CLR,,0.00,0.0,WeatherDisplay:10.37,2013-01-10 05:24:00,
2013-01-10 00:29:00,35.2,22.3,30.42,West,270,0.0,4.6,59,0.00,CLR,,0.00,0.0,WeatherDisplay:10.37,2013-01-10 05:29:00,
2013-01-10 00:34:00,35.2,22.3,30.42,SW,225,2.2,3.6,59,0.00,CLR,,0.00,0.0,WeatherDisplay:10.37,2013-01-10 05:34:00,
2013-01-10 00:39:00,35.2,22.3,30.48,WSW,248,0.0,2.6,59,0.00,CLR,,0.00,0.0,WeatherDisplay:10.37,2013-01-10 05:39:00,
2013-01-10 00:44:00,35.2,22.3,30.48,SW,225,0.0,0.0,59,0.00,CLR,,0.00,0.0,WeatherDisplay:10.37,2013-01-10 05:44:00,
2013-01-10 00:49:00,35.1,22.2,30.48,SW,225,0.0,3.5,59,0.00,CLR,,0.00,0.0,WeatherDisplay:10.37,2013-01-10 05:49:00,
2013-01-10 00:54:00,34.9,22.0,30.44,SW,225,0.0,0.0,59,0.00,CLR,,0.00,0.0,WeatherDisplay:10.37,2013-01-10 05:54:00,
2013-01-10 00:59:00,34.9,22.4,30.44,SW,225,0.0,0.0,60,0.00,CLR,,0.00,0.0,WeatherDisplay:10.37,2013-01-10 05:59:00,
2013-01-10 01:04:00,35.1,22.6,30.44,West,270,0.0,0.0,60,0.00,CLR,,0.00,0.0,WeatherDisplay:10.37,2013-01-10 06:04:00,
2013-01-10 01:09:00,35.1,23.0,30.42,NW,315,0.0,0.0,61,0.00,CLR,,0.00,0.0,WeatherDisplay:10.37,2013-01-10 06:09:00,
2013-01-10 01:14:00,35.2,23.5,30.42,WNW,292,0.0,0.0,62,0.00,CLR,,0.00,0.0,WeatherDisplay:10.37,2013-01-10 06:14:00,
2013-01-10 01:19:00,35.1,23.0,30.42,NW,315,0.0,0.0,61,0.00,CLR,,0.00,0.0,WeatherDisplay:10.37,2013-01-10 06:19:00,
2013-01-10 01:24:00,34.3,22.3,30.42,NW,315,0.0,0.0,61,0.00,CLR,,0.00,0.0,WeatherDisplay:10.37,2013-01-10 06:24:00,
2013-01-10 01:29:00,34.2,22.5,30.42,NW,315,0.0,0.0,62,0.00,CLR,,0.00,0.0,WeatherDisplay:10.37,2013-01-10 06:29:00,
2013-01-10 01:34:00,34.0,22.7,30.42,NW,315,0.0,0.0,63,0.00,CLR,,0.00,0.0,WeatherDisplay:10.37,2013-01-10 06:34:00,
2013-01-10 01:39:00,33.8,22.9,30.42,NW,315,0.0,0.0,64,0.00,CLR,,0.00,0.0,WeatherDisplay:10.37,2013-01-10 06:39:00,
2013-01-10 01:44:00,33.3,22.8,30.42,NW,315,0.0,0.0,65,0.00,CLR,,0.00,0.0,WeatherDisplay:10.37,2013-01-10 06:44:00,
2013-01-10 01:49:00,33.1,22.9,30.42,NW,315,0.0,0.0,66,0.00,CLR,,0.00,0.0,WeatherDisplay:10.37,2013-01-10 06:49:00,
2013-01-10 01:54:00,32.9,23.1,30.42,NW,315,0.0,0.0,67,0.00,CLR,,0.00,0.0,WeatherDisplay:10.37,2013-01-10 06:54:00,
2013-01-10 01:59:00,32.7,23.3,30.42,NW,315,0.0,0.0,68,0.00,CLR,,0.00,0.0,WeatherDisplay:10.37,2013-01-10 06:59:00,
2013-01-10 02:04:00,32.7,23.7,30.42,NW,315,0.0,0.0,69,0.00,CLR,,0.00,0.0,WeatherDisplay:10.37,2013-01-10 07:04:00,
2013-01-10 02:09:00,32.5,23.8,30.42,NW,315,0.0,0.0,70,0.00,CLR,,0.00,0.0,WeatherDisplay:10.37,2013-01-10 07:09:00,
2013-01-10 02:14:00,32.7,24.3,30.42,NW,315,0.0,0.0,71,0.00,CLR,,0.00,0.0,WeatherDisplay:10.37,2013-01-10 07:14:00,
2013-01-10 02:19:00,32.7,24.7,30.42,NW,315,0.0,0.0,72,0.00,CLR,,0.00,0.0,WeatherDisplay:10.37,2013-01-10 07:19:00,
2013-01-10 02:24:00,32.7,25.0,30.42,NW,315,0.0,0.0,73,0.00,CLR,,0.00,0.0,WeatherDisplay:10.37,2013-01-10 07:24:00,
2013-01-10 02:29:00,32.9,25.5,30.42,NW,315,0.0,0.0,74,0.00,CLR,,0.00,0.0,WeatherDisplay:10.37,2013-01-10 07:29:00,
2013-01-10 02:34:00,32.7,25.7,30.42,NW,315,0.0,0.0,75,0.00,CLR,,0.00,0.0,WeatherDisplay:10.37,2013-01-10 07:34:00,
2013-01-10 02:39:00,32.5,25.5,30.42,NW,315,0.0,0.0,75,0.00,CLR,,0.00,0.0,WeatherDisplay:10.37,2013-01-10 07:39:00,
2013-01-10 02:44:00,32.5,25.8,30.42,NW,315,0.0,0.0,76,0.00,CLR,,0.00,0.0,WeatherDisplay:10.37,2013-01-10 07:44:00,
2013-01-10 02:49:00,32.5,26.1,30.42,NW,315,0.0,0.0,77,0.00,CLR,,0.00,0.0,WeatherDisplay:10.37,2013-01-10 07:49:00,
2013-01-10 02:54:00,32.9,26.5,30.42,NW,315,0.0,0.0,77,0.00,CLR,,0.00,0.0,WeatherDisplay:10.37,2013-01-10 07:54:00,
2013-01-10 02:59:00,32.7,26.6,30.42,NW,315,0.0,0.0,78,0.00,CLR,,0.00,0.0,WeatherDisplay:10.37,2013-01-10 07:59:00,
2013-01-10 03:04:00,32.5,26.4,30.42,NW,315,0.0,0.0,78,0.00,CLR,,0.00,0.0,WeatherDisplay:10.37,2013-01-10 08:04:00,
2013-01-10 03:09:00,32.4,26.3,30.42,NW,315,0.0,0.0,78,0.00,CLR,,0.00,0.0,WeatherDisplay:10.37,2013-01-10 08:09:00,
2013-01-10 03:14:00,32.2,26.4,30.42,NW,315,0.0,0.0,79,0.00,CLR,,0.00,0.0,WeatherDisplay:10.37,2013-01-10 08:14:00,
2013-01-10 03:19:00,32.2,26.4,30.42,NW,315,0.0,0.0,79,0.00,CLR,,0.00,0.0,WeatherDisplay:10.37,2013-01-10 08:19:00,
2013-01-10 03:24:00,32.7,27.2,30.42,NW,315,0.0,0.0,80,0.00,CLR,,0.00,0.0,WeatherDisplay:10.37,2013-01-10 08:24:00,
2013-01-10 03:29:00,33.3,28.1,30.42,NW,315,0.0,0.0,81,0.00,CLR,,0.00,0.0,WeatherDisplay:10.37,2013-01-10 08:29:00,
2013-01-10 03:34:00,33.3,28.1,30.42,NW,315,0.0,0.0,81,0.00,CLR,,0.00,0.0,WeatherDisplay:10.37,2013-01-10 08:34:00,
2013-01-10 03:39:00,33.4,28.5,30.42,NW,315,0.0,0.0,82,0.00,CLR,,0.00,0.0,WeatherDisplay:10.37,2013-01-10 08:39:00,
2013-01-10 03:44:00,33.3,28.4,30.42,NW,315,0.0,0.0,82,0.00,CLR,,0.00,0.0,WeatherDisplay:10.37,2013-01-10 08:44:00,
2013-01-10 03:49:00,33.6,29.0,30.42,NW,315,0.0,0.0,83,0.00,CLR,,0.00,0.0,WeatherDisplay:10.37,2013-01-10 08:49:00,
2013-01-10 03:54:00,34.2,29.5,30.42,NW,315,0.0,0.0,83,0.00,CLR,,0.00,0.0,WeatherDisplay:10.37,2013-01-10 08:54:00,
2013-01-10 03:59:00,34.3,30.0,30.42,NW,315,0.0,0.0,84,0.00,CLR,,0.00,0.0,WeatherDisplay:10.37,2013-01-10 08:59:00,
2013-01-10 04:04:00,34.5,30.2,30.42,NW,315,0.0,0.0,84,0.00,CLR,,0.00,0.0,WeatherDisplay:10.37,2013-01-10 09:04:00,
2013-01-10 04:09:00,34.5,30.5,30.42,NW,315,0.0,0.0,85,0.00,CLR,,0.00,0.0,WeatherDisplay:10.37,2013-01-10 09:09:00,
2013-01-10 04:14:00,34.3,30.3,30.42,NW,315,0.0,0.0,85,0.00,CLR,,0.00,0.0,WeatherDisplay:10.37,2013-01-10 09:14:00,
2013-01-10 04:19:00,34.0,29.9,30.42,NW,315,0.0,0.0,85,0.00,CLR,,0.00,0.0,WeatherDisplay:10.37,2013-01-10 09:19:00,
2013-01-10 04:24:00,34.0,29.9,30.42,NW,315,0.0,0.0,85,0.00,CLR,,0.00,0.0,WeatherDisplay:10.37,2013-01-10 09:24:00,
2013-01-10 04:29:00,34.2,30.4,30.42,NW,315,0.0,0.0,86,0.00,CLR,,0.00,0.0,WeatherDisplay:10.37,2013-01-10 09:29:00,
2013-01-10 04:34:00,34.2,30.4,30.42,NW,315,0.0,0.0,86,0.00,CLR,,0.00,0.0,WeatherDisplay:10.37,2013-01-10 09:34:00,
2013-01-10 04:39:00,34.3,30.6,30.42,NW,315,0.0,0.0,86,0.00,CLR,,0.00,0.0,WeatherDisplay:10.37,2013-01-10 09:39:00,
2013-01-10 04:44:00,34.0,30.5,30.42,NW,315,0.0,0.0,87,0.00,CLR,,0.00,0.0,WeatherDisplay:10.37,2013-01-10 09:44:00,
2013-01-10 04:49:00,33.8,30.3,30.42,NW,315,0.0,0.0,87,0.00,CLR,,0.00,0.0,WeatherDisplay:10.37,2013-01-10 09:49:00,
2013-01-10 04:54:00,34.2,30.7,30.42,SW,225,0.0,0.0,87,0.00,CLR,,0.00,0.0,WeatherDisplay:10.37,2013-01-10 09:54:00,
2013-01-10 04:59:00,33.6,30.4,30.42,South,180,0.0,0.0,88,0.00,CLR,,0.00,0.0,WeatherDisplay:10.37,2013-01-10 09:59:00,
2013-01-10 05:04:00,33.6,30.4,30.42,South,180,0.0,0.0,88,0.00,CLR,,0.00,0.0,WeatherDisplay:10.37,2013-01-10 10:04:00,
2013-01-10 05:09:00,33.6,30.4,30.42,South,180,0.0,0.0,88,0.00,CLR,,0.00,0.0,WeatherDisplay:10.37,2013-01-10 10:09:00,
2013-01-10 05:14:00,33.3,30.1,30.42,South,180,0.0,0.0,88,0.00,CLR,,0.00,0.0,WeatherDisplay:10.37,2013-01-10 10:14:00,
2013-01-10 05:19:00,33.4,30.3,30.42,South,180,0.0,0.0,88,0.00,CLR,,0.00,0.0,WeatherDisplay:10.37,2013-01-10 10:19:00,
2013-01-10 05:24:00,34.0,30.8,30.42,South,180,0.0,0.0,88,0.00,CLR,,0.00,0.0,WeatherDisplay:10.37,2013-01-10 10:24:00,
2013-01-10 05:29:00,34.0,30.8,30.42,South,180,0.0,0.0,88,0.00,CLR,,0.00,0.0,WeatherDisplay:10.37,2013-01-10 10:29:00,
2013-01-10 05:34:00,34.3,31.4,30.42,SE,135,0.0,0.0,89,0.00,CLR,,0.00,0.0,WeatherDisplay:10.37,2013-01-10 10:34:00,
2013-01-10 05:39:00,34.5,31.6,30.42,SE,135,0.0,0.0,89,0.00,CLR,,0.00,0.0,WeatherDisplay:10.37,2013-01-10 10:39:00,
2013-01-10 05:45:00,34.9,32.0,30.42,SE,135,0.0,0.0,89,0.00,CLR,,0.00,0.0,WeatherDisplay:10.37,2013-01-10 10:45:00,
2013-01-10 05:50:00,34.9,32.0,30.42,SE,135,0.0,0.0,89,0.00,CLR,,0.00,0.0,WeatherDisplay:10.37,2013-01-10 10:50:00,
2013-01-10 05:55:00,35.1,32.1,30.42,SE,135,0.0,0.0,89,0.00,CLR,,0.00,0.0,WeatherDisplay:10.37,2013-01-10 10:55:00,
2013-01-10 06:00:00,34.9,32.0,30.42,SE,135,0.0,0.0,89,0.00,CLR,,0.00,0.0,WeatherDisplay:10.37,2013-01-10 11:00:00,
2013-01-10 06:05:00,34.9,32.0,30.42,SE,135,0.0,0.0,89,0.00,CLR,,0.00,0.0,WeatherDisplay:10.37,2013-01-10 11:05:00,
2013-01-10 06:10:00,34.9,32.0,30.42,SE,135,0.0,0.0,89,0.00,CLR,,0.00,0.0,WeatherDisplay:10.37,2013-01-10 11:10:00,
2013-01-10 06:15:00,34.7,32.1,30.42,SE,135,0.0,0.0,90,0.00,CLR,,0.00,0.0,WeatherDisplay:10.37,2013-01-10 11:15:00,
2013-01-10 06:20:00,34.7,32.1,30.42,SE,135,0.0,0.0,90,0.00,CLR,,0.00,0.0,WeatherDisplay:10.37,2013-01-10 11:20:00,
2013-01-10 06:25:00,34.5,31.9,30.44,SE,135,0.0,0.0,90,0.00,CLR,,0.00,0.0,WeatherDisplay:10.37,2013-01-10 11:25:00,
2013-01-10 06:30:00,34.5,31.9,30.44,SE,135,0.0,0.0,90,0.00,CLR,,0.00,0.0,WeatherDisplay:10.37,2013-01-10 11:30:00,
2013-01-10 06:35:00,34.5,31.9,30.44,SE,135,0.0,0.0,90,0.00,CLR,,0.00,0.0,WeatherDisplay:10.37,2013-01-10 11:35:00,
2013-01-10 06:40:00,34.5,31.9,30.44,SE,135,0.0,0.0,90,0.00,CLR,,0.00,0.0,WeatherDisplay:10.37,2013-01-10 11:40:00,
2013-01-10 06:45:00,34.7,32.1,30.44,SE,135,0.0,0.0,90,0.00,CLR,,0.00,0.0,WeatherDisplay:10.37,2013-01-10 11:45:00,
2013-01-10 06:50:00,34.5,32.2,30.44,SE,135,0.0,0.0,91,0.00,CLR,,0.00,0.0,WeatherDisplay:10.37,2013-01-10 11:50:00,
2013-01-10 06:55:00,35.1,32.7,30.44,East,90,0.0,0.0,91,0.00,CLR,,0.00,0.0,WeatherDisplay:10.37,2013-01-10 11:55:00,
2013-01-10 07:00:00,35.1,32.7,30.44,East,90,0.0,0.0,91,0.00,CLR,,0.00,0.0,WeatherDisplay:10.37,2013-01-10 12:00:00,
2013-01-10 07:05:00,34.9,32.5,30.44,East,90,0.0,0.0,91,0.00,CLR,,0.00,0.0,WeatherDisplay:10.37,2013-01-10 12:05:00,
2013-01-10 07:10:00,34.9,32.5,30.44,East,90,0.0,2.3,91,0.00,CLR,,0.00,0.0,WeatherDisplay:10.37,2013-01-10 12:10:00,
2013-01-10 07:15:00,34.9,32.5,30.44,East,90,0.0,0.0,91,0.00,CLR,,0.00,0.0,WeatherDisplay:10.37,2013-01-10 12:15:00,
2013-01-10 07:20:00,34.9,32.5,30.44,East,90,0.0,0.0,91,0.00,CLR,,0.00,0.0,WeatherDisplay:10.37,2013-01-10 12:20:00,
2013-01-10 07:25:00,35.1,33.0,30.44,East,90,0.0,0.0,92,0.00,OVC,,0.00,0.0,WeatherDisplay:10.37,2013-01-10 12:25:00,
2013-01-10 07:30:00,35.2,33.1,30.44,East,90,0.0,0.0,92,0.00,OVC,,0.00,0.0,WeatherDisplay:10.37,2013-01-10 12:30:00,
2013-01-10 07:35:00,35.2,33.1,30.44,East,90,0.0,0.0,92,0.00,OVC,,0.00,0.0,WeatherDisplay:10.37,2013-01-10 12:35:00,
2013-01-10 07:40:00,35.4,33.3,30.44,East,90,0.0,0.0,92,0.00,OVC,,0.00,0.0,WeatherDisplay:10.37,2013-01-10 12:40:00,
2013-01-10 07:45:00,35.6,33.5,30.44,East,90,0.0,0.0,92,0.00,OVC,,0.00,0.0,WeatherDisplay:10.37,2013-01-10 12:45:00,
2013-01-10 07:50:00,35.8,33.7,30.44,East,90,0.0,0.0,92,0.00,OVC,,0.00,0.0,WeatherDisplay:10.37,2013-01-10 12:50:00,
2013-01-10 07:55:00,35.6,33.5,30.48,East,90,0.0,0.0,92,0.00,OVC,,0.00,0.0,WeatherDisplay:10.37,2013-01-10 12:55:00,
2013-01-10 08:00:00,35.8,33.7,30.48,East,90,0.0,0.0,92,0.00,OVC,,0.00,0.0,WeatherDisplay:10.37,2013-01-10 13:00:00,
2013-01-10 08:05:00,35.6,33.5,30.48,East,90,0.0,0.0,92,0.00,OVC,,0.00,0.0,WeatherDisplay:10.37,2013-01-10 13:05:00,
2013-01-10 08:10:00,35.8,33.7,30.48,East,90,0.0,0.0,92,0.00,OVC,,0.00,0.0,WeatherDisplay:10.37,2013-01-10 13:10:00,
2013-01-10 08:15:00,35.8,34.0,30.48,East,90,0.0,0.0,93,0.00,OVC,,0.00,0.0,WeatherDisplay:10.37,2013-01-10 13:15:00,
2013-01-10 08:20:00,35.6,33.8,30.48,East,90,0.0,0.0,93,0.00,OVC,,0.00,0.0,WeatherDisplay:10.37,2013-01-10 13:20:00,
2013-01-10 08:25:00,35.8,34.0,30.48,East,90,0.0,0.0,93,0.00,OVC,,0.00,0.0,WeatherDisplay:10.37,2013-01-10 13:25:00,
2013-01-10 08:30:00,36.0,34.1,30.48,East,90,0.0,2.6,93,0.00,OVC,,0.00,0.0,WeatherDisplay:10.37,2013-01-10 13:30:00,
2013-01-10 08:35:00,36.1,34.3,30.48,East,90,0.0,2.6,93,0.00,OVC,,0.00,0.0,WeatherDisplay:10.37,2013-01-10 13:35:00,
2013-01-10 08:40:00,36.3,34.5,30.48,ENE,68,3.1,4.6,93,0.00,OVC,,0.00,0.0,WeatherDisplay:10.37,2013-01-10 13:40:00,
2013-01-10 08:45:00,36.3,34.5,30.48,East,90,2.6,4.6,93,0.00,OVC,,0.00,0.0,WeatherDisplay:10.37,2013-01-10 13:45:00,
2013-01-10 08:50:00,36.1,34.3,30.48,East,90,4.0,5.9,93,0.00,OVC,,0.00,0.0,WeatherDisplay:10.37,2013-01-10 13:50:00,
2013-01-10 08:55:00,36.1,34.3,30.48,ENE,68,3.6,4.6,93,0.00,OVC,,0.00,0.0,WeatherDisplay:10.37,2013-01-10 13:55:00,
2013-01-10 09:00:00,36.3,34.5,30.48,East,90,3.6,4.9,93,0.00,OVC,,0.00,0.0,WeatherDisplay:10.37,2013-01-10 14:00:00,
2013-01-10 09:05:00,36.5,34.7,30.48,East,90,4.0,4.9,93,0.00,OVC,,0.00,0.0,WeatherDisplay:10.37,2013-01-10 14:05:00,
2013-01-10 09:10:00,36.7,34.8,30.48,East,90,4.0,5.8,93,0.00,OVC,,0.00,0.0,WeatherDisplay:10.37,2013-01-10 14:10:00,
2013-01-10 09:15:00,37.0,35.2,30.48,East,90,4.0,5.8,93,0.00,OVC,,0.00,0.0,WeatherDisplay:10.37,2013-01-10 14:15:00,
2013-01-10 09:20:00,37.0,35.5,30.48,ENE,68,4.9,6.2,94,0.00,OVC,,0.00,100.0,WeatherDisplay:10.37,2013-01-10 14:20:00,
2013-01-10 09:25:00,36.9,35.3,30.48,NE,45,4.5,5.8,94,0.00,OVC,,0.00,100.0,WeatherDisplay:10.37,2013-01-10 14:25:00,
2013-01-10 09:30:00,36.7,35.1,30.48,East,90,4.0,5.8,94,0.00,OVC,,0.00,100.0,WeatherDisplay:10.37,2013-01-10 14:30:00,
2013-01-10 09:35:00,36.3,34.8,30.48,East,90,4.9,5.9,94,0.00,OVC,,0.00,100.0,WeatherDisplay:10.37,2013-01-10 14:35:00,
2013-01-10 09:40:00,36.1,34.6,30.48,ENE,68,5.9,6.2,94,0.00,OVC,,0.00,100.0,WeatherDisplay:10.37,2013-01-10 14:40:00,
2013-01-10 09:45:00,35.6,34.0,30.48,ENE,68,5.4,7.1,94,0.00,OVC,,0.00,100.0,WeatherDisplay:10.37,2013-01-10 14:45:00,
2013-01-10 09:50:00,35.4,33.9,30.48,East,90,4.9,8.1,94,0.00,OVC,,0.00,100.0,WeatherDisplay:10.37,2013-01-10 14:50:00,
2013-01-10 09:55:00,35.1,33.2,30.48,East,90,5.9,6.7,93,0.00,OVC,,0.00,100.0,WeatherDisplay:10.37,2013-01-10 14:55:00,
2013-01-10 10:00:00,34.9,32.5,30.48,East,90,5.9,8.1,91,0.00,OVC,,0.00,100.0,WeatherDisplay:10.37,2013-01-10 15:00:00,
2013-01-10 10:05:00,34.9,31.7,30.48,NE,45,5.4,8.7,88,0.00,OVC,,0.00,200.0,WeatherDisplay:10.37,2013-01-10 15:05:00,
2013-01-10 10:10:00,34.9,30.5,30.48,East,90,6.2,8.1,84,0.00,OVC,,0.00,200.0,WeatherDisplay:10.37,2013-01-10 15:10:00,
2013-01-10 10:15:00,34.9,29.3,30.48,East,90,6.2,8.1,80,0.00,OVC,,0.00,200.0,WeatherDisplay:10.37,2013-01-10 15:15:00,
2013-01-10 10:20:00,34.9,28.1,30.48,NE,45,6.7,9.2,76,0.00,OVC,,0.00,200.0,WeatherDisplay:10.37,2013-01-10 15:20:00,
2013-01-10 10:25:00,34.9,27.1,30.48,NE,45,6.7,8.3,73,0.00,OVC,,0.00,200.0,WeatherDisplay:10.37,2013-01-10 15:25:00,
2013-01-10 10:30:00,34.9,26.4,30.48,ENE,68,6.2,7.6,71,0.00,OVC,,0.00,200.0,WeatherDisplay:10.37,2013-01-10 15:30:00,
2013-01-10 10:35:00,35.1,25.9,30.48,East,90,6.7,9.2,69,0.00,OVC,,0.00,200.0,WeatherDisplay:10.37,2013-01-10 15:35:00,
2013-01-10 10:40:00,35.2,24.3,30.48,East,90,7.6,10.4,64,0.00,OVC,,0.00,300.0,WeatherDisplay:10.37,2013-01-10 15:40:00,
2013-01-10 10:45:00,35.2,23.1,30.48,NE,45,8.1,10.9,61,0.00,OVC,,0.00,200.0,WeatherDisplay:10.37,2013-01-10 15:45:00,
2013-01-10 10:50:00,35.4,22.1,30.48,ENE,68,7.1,10.4,58,0.00,OVC,,0.00,300.0,WeatherDisplay:10.37,2013-01-10 15:50:00,
2013-01-10 10:56:00,35.4,21.3,30.44,East,90,9.7,12.7,56,0.00,OVC,,0.00,300.0,WeatherDisplay:10.37,2013-01-10 15:56:00,
2013-01-10 11:01:00,35.6,19.7,30.44,East,90,10.0,13.8,52,0.00,OVC,,0.00,300.0,WeatherDisplay:10.37,2013-01-10 16:01:00,
2013-01-10 11:06:00,35.6,19.2,30.44,East,90,6.7,9.2,51,0.00,OVC,,0.00,300.0,WeatherDisplay:10.37,2013-01-10 16:06:00,
2013-01-10 11:11:00,35.6,18.8,30.48,East,90,7.6,10.4,50,0.00,OVC,,0.00,300.0,WeatherDisplay:10.37,2013-01-10 16:11:00,
2013-01-10 11:16:00,35.8,19.4,30.48,ENE,68,6.2,10.4,51,0.00,OVC,,0.00,300.0,WeatherDisplay:10.37,2013-01-10 16:16:00,
2013-01-10 11:21:00,36.1,19.7,30.48,ENE,68,6.7,10.4,51,0.00,OVC,,0.00,400.0,WeatherDisplay:10.37,2013-01-10 16:21:00,
2013-01-10 11:26:00,36.1,19.3,30.44,SE,135,6.2,9.2,50,0.00,OVC,,0.00,400.0,WeatherDisplay:10.37,2013-01-10 16:26:00,
2013-01-10 11:31:00,36.1,19.3,30.44,East,90,8.1,10.4,50,0.00,OVC,,0.00,400.0,WeatherDisplay:10.37,2013-01-10 16:31:00,
2013-01-10 11:36:00,36.3,19.4,30.44,East,90,6.7,10.4,50,0.00,OVC,,0.00,400.0,WeatherDisplay:10.37,2013-01-10 16:36:00,
2013-01-10 11:41:00,36.3,19.0,30.44,SE,135,4.9,7.1,49,0.00,OVC,,0.00,400.0,WeatherDisplay:10.37,2013-01-10 16:41:00,
2013-01-10 11:46:00,36.7,18.8,30.44,SSE,158,7.1,10.4,48,0.00,OVC,,0.00,500.0,WeatherDisplay:10.37,2013-01-10 16:46:00,
2013-01-10 11:51:00,36.9,18.5,30.44,East,90,6.2,8.1,47,0.00,OVC,,0.00,400.0,WeatherDisplay:10.37,2013-01-10 16:51:00,
2013-01-10 11:56:00,36.7,17.8,30.44,ESE,112,7.6,11.5,46,0.00,OVC,,0.00,300.0,WeatherDisplay:10.37,2013-01-10 16:56:00,
2013-01-10 12:01:00,36.3,18.0,30.44,East,90,7.6,11.5,47,0.00,OVC,,0.00,300.0,WeatherDisplay:10.37,2013-01-10 17:01:00,
2013-01-10 12:06:00,36.3,18.0,30.44,ENE,68,7.1,10.4,47,0.00,OVC,,0.00,300.0,WeatherDisplay:10.37,2013-01-10 17:06:00,
2013-01-10 12:11:00,36.3,18.5,30.42,ENE,68,7.1,10.5,48,0.00,OVC,,0.00,300.0,WeatherDisplay:10.37,2013-01-10 17:11:00,
2013-01-10 12:16:00,36.3,18.0,30.42,ESE,112,8.7,10.4,47,0.00,OVC,,0.00,300.0,WeatherDisplay:10.37,2013-01-10 17:16:00,
2013-01-10 12:21:00,36.5,18.2,30.42,East,90,8.1,11.5,47,0.00,OVC,,0.00,300.0,WeatherDisplay:10.37,2013-01-10 17:21:00,
2013-01-10 12:26:00,36.5,18.2,30.42,East,90,7.6,10.4,47,0.00,OVC,,0.00,300.0,WeatherDisplay:10.37,2013-01-10 17:26:00,
2013-01-10 12:31:00,36.7,18.3,30.42,East,90,6.7,9.2,47,0.00,OVC,,0.00,200.0,WeatherDisplay:10.37,2013-01-10 17:31:00,
2013-01-10 12:36:00,36.7,18.3,30.42,ENE,68,5.9,9.2,47,0.00,OVC,,0.00,200.0,WeatherDisplay:10.37,2013-01-10 17:36:00,
2013-01-10 12:41:00,36.7,17.8,30.42,East,90,6.2,9.2,46,0.00,OVC,,0.00,200.0,WeatherDisplay:10.37,2013-01-10 17:41:00,
2013-01-10 12:46:00,36.9,17.5,30.42,East,90,6.2,9.2,45,0.00,OVC,,0.00,200.0,WeatherDisplay:10.37,2013-01-10 17:46:00,
2013-01-10 12:51:00,36.9,17.5,30.42,ESE,112,4.5,8.7,45,0.00,OVC,,0.00,100.0,WeatherDisplay:10.37,2013-01-10 17:51:00,
2013-01-10 12:56:00,36.9,17.5,30.42,SE,135,4.0,6.2,45,0.00,OVC,,0.00,200.0,WeatherDisplay:10.37,2013-01-10 17:56:00,
2013-01-10 13:01:00,36.9,17.5,30.42,East,90,4.5,8.1,45,0.00,OVC,,0.00,200.0,WeatherDisplay:10.37,2013-01-10 18:01:00,
2013-01-10 13:06:00,37.0,17.6,30.42,ESE,112,3.1,6.9,45,0.00,OVC,,0.00,200.0,WeatherDisplay:10.37,2013-01-10 18:06:00,
2013-01-10 13:11:00,37.0,17.6,30.42,East,90,5.9,8.1,45,0.00,OVC,,0.00,100.0,WeatherDisplay:10.37,2013-01-10 18:11:00,
2013-01-10 13:16:00,36.9,17.0,30.42,East,90,4.9,8.1,44,0.00,OVC,,0.00,100.0,WeatherDisplay:10.37,2013-01-10 18:16:00,
2013-01-10 13:21:00,37.0,17.6,30.42,East,90,6.7,8.1,45,0.00,OVC,,0.00,100.0,WeatherDisplay:10.37,2013-01-10 18:21:00,
2013-01-10 13:26:00,36.9,17.5,30.39,East,90,4.0,5.9,45,0.00,OVC,,0.00,100.0,WeatherDisplay:10.37,2013-01-10 18:26:00,
2013-01-10 13:31:00,36.9,17.5,30.39,East,90,6.7,9.2,45,0.00,OVC,,0.00,100.0,WeatherDisplay:10.37,2013-01-10 18:31:00,
2013-01-10 13:36:00,36.9,17.5,30.39,SE,135,6.2,9.2,45,0.00,OVC,,0.00,200.0,WeatherDisplay:10.37,2013-01-10 18:36:00,
2013-01-10 13:41:00,37.0,17.6,30.39,East,90,5.9,8.1,45,0.00,OVC,,0.00,200.0,WeatherDisplay:10.37,2013-01-10 18:41:00,
2013-01-10 13:46:00,37.0,17.1,30.39,ENE,68,4.0,8.1,44,0.00,OVC,,0.00,200.0,WeatherDisplay:10.37,2013-01-10 18:46:00,
2013-01-10 13:51:00,37.0,17.6,30.39,NE,45,6.7,8.1,45,0.00,OVC,,0.00,200.0,WeatherDisplay:10.37,2013-01-10 18:51:00,
2013-01-10 13:56:00,37.0,17.6,30.39,East,90,5.4,9.2,45,0.00,OVC,,0.00,100.0,WeatherDisplay:10.37,2013-01-10 18:56:00,
2013-01-10 14:01:00,37.0,17.6,30.39,ENE,68,6.2,10.4,45,0.00,OVC,,0.00,200.0,WeatherDisplay:10.37,2013-01-10 19:01:00,
2013-01-10 14:06:00,37.0,18.1,30.39,East,90,5.9,9.2,46,0.00,OVC,,0.00,200.0,WeatherDisplay:10.37,2013-01-10 19:06:00,
2013-01-10 14:11:00,37.0,18.1,30.39,SE,135,7.1,11.5,46,0.00,OVC,,0.00,200.0,WeatherDisplay:10.37,2013-01-10 19:11:00,
2013-01-10 14:16:00,37.0,18.1,30.39,East,90,5.4,9.2,46,0.00,OVC,,0.00,200.0,WeatherDisplay:10.37,2013-01-10 19:16:00,
2013-01-10 14:21:00,37.2,18.3,30.39,ENE,68,8.1,10.0,46,0.00,OVC,,0.00,200.0,WeatherDisplay:10.37,2013-01-10 19:21:00,
2013-01-10 14:26:00,37.2,17.8,30.39,East,90,6.7,8.3,45,0.00,OVC,,0.00,100.0,WeatherDisplay:10.37,2013-01-10 19:26:00,
2013-01-10 14:31:00,37.2,17.8,30.39,East,90,8.3,10.4,45,0.00,OVC,,0.00,100.0,WeatherDisplay:10.37,2013-01-10 19:31:00,
2013-01-10 14:36:00,37.2,18.3,30.39,East,90,7.1,10.9,46,0.00,OVC,,0.00,100.0,WeatherDisplay:10.37,2013-01-10 19:36:00,
2013-01-10 14:41:00,37.2,18.3,30.36,East,90,6.7,10.0,46,0.00,OVC,,0.00,100.0,WeatherDisplay:10.37,2013-01-10 19:41:00,
2013-01-10 14:46:00,37.2,18.3,30.36,East,90,7.1,10.0,46,0.00,OVC,,0.00,100.0,WeatherDisplay:10.37,2013-01-10 19:46:00,
2013-01-10 14:51:00,37.2,18.3,30.36,ENE,68,9.2,12.7,46,0.00,OVC,,0.00,100.0,WeatherDisplay:10.37,2013-01-10 19:51:00,
2013-01-10 14:56:00,37.4,18.0,30.36,East,90,8.7,11.5,45,0.00,OVC,,0.00,100.0,WeatherDisplay:10.37,2013-01-10 19:56:00,
2013-01-10 15:01:00,37.4,18.0,30.36,ENE,68,7.1,11.5,45,0.00,OVC,,0.00,100.0,WeatherDisplay:10.37,2013-01-10 20:01:00,
2013-01-10 15:06:00,37.4,18.0,30.36,NE,45,7.1,10.4,45,0.00,OVC,,0.00,100.0,WeatherDisplay:10.37,2013-01-10 20:06:00,
2013-01-10 15:11:00,37.6,18.1,30.33,East,90,6.2,8.7,45,0.00,OVC,,0.00,100.0,WeatherDisplay:10.37,2013-01-10 20:11:00,
2013-01-10 15:16:00,37.6,18.1,30.33,East,90,6.7,9.2,45,0.00,OVC,,0.00,0.0,WeatherDisplay:10.37,2013-01-10 20:16:00,
2013-01-10 15:22:00,37.6,18.1,30.36,NE,45,4.9,8.1,45,0.00,OVC,,0.00,0.0,WeatherDisplay:10.37,2013-01-10 20:22:00,
2013-01-10 15:27:00,37.6,17.6,30.36,East,90,6.2,9.2,44,0.00,OVC,,0.00,100.0,WeatherDisplay:10.37,2013-01-10 20:27:00,
2013-01-10 15:32:00,37.6,17.6,30.36,East,90,7.1,8.7,44,0.00,OVC,,0.00,0.0,WeatherDisplay:10.37,2013-01-10 20:32:00,
2013-01-10 15:37:00,37.6,17.6,30.33,East,90,7.6,11.5,44,0.00,OVC,,0.00,0.0,WeatherDisplay:10.37,2013-01-10 20:37:00,
2013-01-10 15:42:00,37.6,17.6,30.33,ENE,68,6.7,9.2,44,0.00,OVC,,0.00,0.0,WeatherDisplay:10.37,2013-01-10 20:42:00,
2013-01-10 15:47:00,37.6,17.6,30.33,East,90,7.1,9.2,44,0.00,OVC,,0.00,0.0,WeatherDisplay:10.37,2013-01-10 20:47:00,
2013-01-10 15:52:00,37.6,18.1,30.33,East,90,6.7,10.4,45,0.00,OVC,,0.00,0.0,WeatherDisplay:10.37,2013-01-10 20:52:00,
2013-01-10 15:57:00,37.6,17.6,30.33,East,90,6.7,10.0,44,0.00,OVC,,0.00,0.0,WeatherDisplay:10.37,2013-01-10 20:57:00,
2013-01-10 16:02:00,37.8,17.8,30.33,East,90,7.1,9.2,44,0.00,OVC,,0.00,0.0,WeatherDisplay:10.37,2013-01-10 21:02:00,
2013-01-10 16:07:00,37.8,17.8,30.33,East,90,5.4,8.3,44,0.00,OVC,,0.00,0.0,WeatherDisplay:10.37,2013-01-10 21:07:00,
2013-01-10 16:12:00,37.8,17.8,30.33,ENE,68,8.1,10.4,44,0.00,OVC,,0.00,0.0,WeatherDisplay:10.37,2013-01-10 21:12:00,
2013-01-10 16:17:00,37.6,17.6,30.33,ENE,68,6.2,9.2,44,0.00,OVC,,0.00,0.0,WeatherDisplay:10.37,2013-01-10 21:17:00,
2013-01-10 16:22:00,37.6,18.1,30.33,ENE,68,5.4,7.6,45,0.00,OVC,,0.00,0.0,WeatherDisplay:10.37,2013-01-10 21:22:00,
2013-01-10 16:27:00,37.6,18.1,30.33,East,90,7.1,9.2,45,0.00,OVC,,0.00,0.0,WeatherDisplay:10.37,2013-01-10 21:27:00,
2013-01-10 16:32:00,37.6,18.1,30.33,East,90,7.6,8.1,45,0.00,OVC,,0.00,0.0,WeatherDisplay:10.37,2013-01-10 21:32:00,
2013-01-10 16:37:00,37.6,18.1,30.30,East,90,7.6,10.4,45,0.00,OVC,,0.00,0.0,WeatherDisplay:10.37,2013-01-10 21:37:00,
2013-01-10 16:42:00,37.4,18.0,30.30,ENE,68,7.6,8.3,45,0.00,OVC,,0.00,0.0,WeatherDisplay:10.37,2013-01-10 21:42:00,
2013-01-10 16:47:00,37.4,18.0,30.30,East,90,6.7,9.2,45,0.00,OVC,,0.00,0.0,WeatherDisplay:10.37,2013-01-10 21:47:00,
2013-01-10 16:52:00,37.4,18.0,30.30,East,90,5.4,10.4,45,0.00,OVC,,0.00,0.0,WeatherDisplay:10.37,2013-01-10 21:52:00,
2013-01-10 16:57:00,37.6,18.1,30.30,NE,45,4.9,8.1,45,0.00,OVC,,0.00,0.0,WeatherDisplay:10.37,2013-01-10 21:57:00,
2013-01-10 17:02:00,37.6,17.6,30.30,East,90,6.7,9.2,44,0.00,OVC,,0.00,0.0,WeatherDisplay:10.37,2013-01-10 22:02:00,
2013-01-10 17:07:00,37.6,17.6,30.30,East,90,5.9,9.2,44,0.00,OVC,,0.00,0.0,WeatherDisplay:10.37,2013-01-10 22:07:00,
2013-01-10 17:12:00,37.6,17.6,30.30,East,90,6.2,9.7,44,0.00,OVC,,0.00,0.0,WeatherDisplay:10.37,2013-01-10 22:12:00,
2013-01-10 17:17:00,37.6,17.6,30.30,East,90,5.4,9.2,44,0.00,OVC,,0.00,0.0,WeatherDisplay:10.37,2013-01-10 22:17:00,
2013-01-10 17:22:00,37.6,17.6,30.30,East,90,5.4,8.1,44,0.00,OVC,,0.00,0.0,WeatherDisplay:10.37,2013-01-10 22:22:00,
2013-01-10 17:27:00,37.4,17.4,30.30,NE,45,4.9,9.2,44,0.00,OVC,,0.00,0.0,WeatherDisplay:10.37,2013-01-10 22:27:00,
2013-01-10 17:32:00,37.4,18.0,30.30,East,90,5.9,10.4,45,0.00,OVC,,0.00,0.0,WeatherDisplay:10.37,2013-01-10 22:32:00,
2013-01-10 17:37:00,37.2,18.3,30.30,ESE,112,7.6,12.8,46,0.00,OVC,,0.00,0.0,WeatherDisplay:10.37,2013-01-10 22:37:00,
2013-01-10 17:42:00,37.0,18.7,30.30,East,90,6.2,8.1,47,0.00,OVC,,0.00,0.0,WeatherDisplay:10.37,2013-01-10 22:42:00,
2013-01-10 17:47:00,37.0,18.7,30.30,East,90,6.7,11.5,47,0.00,OVC,,0.00,0.0,WeatherDisplay:10.37,2013-01-10 22:47:00,
2013-01-10 17:52:00,37.2,18.8,30.30,ESE,112,4.5,7.6,47,0.00,OVC,,0.00,0.0,WeatherDisplay:10.37,2013-01-10 22:52:00,
2013-01-10 17:57:00,37.2,18.8,30.30,East,90,5.4,8.3,47,0.00,CLR,,0.00,0.0,WeatherDisplay:10.37,2013-01-10 22:57:00,
2013-01-10 18:02:00,37.4,18.5,30.30,ENE,68,4.5,5.8,46,0.00,CLR,,0.00,0.0,WeatherDisplay:10.37,2013-01-10 23:02:00,
2013-01-10 18:07:00,37.4,18.5,30.30,East,90,4.9,9.2,46,0.00,CLR,,0.00,0.0,WeatherDisplay:10.37,2013-01-10 23:07:00,
2013-01-10 18:12:00,37.4,18.5,30.30,East,90,5.9,6.9,46,0.00,CLR,,0.00,0.0,WeatherDisplay:10.37,2013-01-10 23:12:00,
2013-01-10 18:18:00,37.4,18.5,30.30,ENE,68,6.2,9.2,46,0.00,CLR,,0.00,0.0,WeatherDisplay:10.37,2013-01-10 23:18:00,
2013-01-10 18:23:00,37.2,18.8,30.27,ESE,112,6.2,8.1,47,0.00,CLR,,0.00,0.0,WeatherDisplay:10.37,2013-01-10 23:23:00,
2013-01-10 18:28:00,37.4,18.5,30.27,ENE,68,4.5,8.1,46,0.00,CLR,,0.00,0.0,WeatherDisplay:10.37,2013-01-10 23:28:00,
2013-01-10 18:33:00,37.4,18.5,30.27,East,90,8.1,8.1,46,0.00,CLR,,0.00,0.0,WeatherDisplay:10.37,2013-01-10 23:33:00,
2013-01-10 18:38:00,37.4,18.5,30.27,East,90,6.2,8.1,46,0.00,CLR,,0.00,0.0,WeatherDisplay:10.37,2013-01-10 23:38:00,
2013-01-10 18:43:00,37.4,18.5,30.27,East,90,4.9,8.1,46,0.00,CLR,,0.00,0.0,WeatherDisplay:10.37,2013-01-10 23:43:00,
2013-01-10 18:48:00,37.6,18.1,30.27,East,90,6.2,9.7,45,0.00,CLR,,0.00,0.0,WeatherDisplay:10.37,2013-01-10 23:48:00,
2013-01-10 18:53:00,37.6,18.1,30.27,NE,45,7.1,8.3,45,0.00,CLR,,0.00,0.0,WeatherDisplay:10.37,2013-01-10 23:53:00,
2013-01-10 18:58:00,37.6,18.1,30.27,ENE,68,6.7,12.8,45,0.00,CLR,,0.00,0.0,WeatherDisplay:10.37,2013-01-10 23:58:00,
2013-01-10 19:03:00,37.8,18.3,30.27,ENE,68,8.1,10.4,45,0.00,CLR,,0.00,0.0,WeatherDisplay:10.37,2013-01-11 00:03:00,
2013-01-10 19:08:00,37.8,17.8,30.24,East,90,8.3,10.4,44,0.00,CLR,,0.00,0.0,WeatherDisplay:10.37,2013-01-11 00:08:00,
2013-01-10 19:13:00,37.8,17.8,30.24,East,90,8.3,11.5,44,0.00,CLR,,0.00,0.0,WeatherDisplay:10.37,2013-01-11 00:13:00,
2013-01-10 19:18:00,37.8,18.3,30.24,ENE,68,8.3,11.5,45,0.00,CLR,,0.00,0.0,WeatherDisplay:10.37,2013-01-11 00:18:00,
2013-01-10 19:23:00,37.8,18.3,30.27,East,90,8.3,10.4,45,0.00,CLR,,0.00,0.0,WeatherDisplay:10.37,2013-01-11 00:23:00,
2013-01-10 19:28:00,37.9,17.9,30.27,East,90,8.1,9.7,44,0.00,CLR,,0.00,0.0,WeatherDisplay:10.37,2013-01-11 00:28:00,
2013-01-10 19:33:00,37.9,17.9,30.27,East,90,7.1,8.3,44,0.00,CLR,,0.00,0.0,WeatherDisplay:10.37,2013-01-11 00:33:00,
2013-01-10 19:38:00,38.1,17.6,30.24,East,90,8.1,10.4,43,0.00,CLR,,0.00,0.0,WeatherDisplay:10.37,2013-01-11 00:38:00,
2013-01-10 19:43:00,38.1,17.6,30.24,ESE,112,7.1,10.9,43,0.00,CLR,,0.00,0.0,WeatherDisplay:10.37,2013-01-11 00:43:00,
2013-01-10 19:48:00,38.3,17.7,30.24,East,90,8.3,9.2,43,0.00,CLR,,0.00,0.0,WeatherDisplay:10.37,2013-01-11 00:48:00,
2013-01-10 19:53:00,38.3,17.7,30.24,ENE,68,10.5,12.7,43,0.00,CLR,,0.00,0.0,WeatherDisplay:10.37,2013-01-11 00:53:00,
2013-01-10 19:59:00,38.1,17.6,30.24,East,90,7.6,9.2,43,0.00,CLR,,0.00,0.0,WeatherDisplay:10.37,2013-01-11 00:59:00,
2013-01-10 20:04:00,38.1,17.6,30.24,East,90,10.0,11.5,43,0.00,CLR,,0.00,0.0,WeatherDisplay:10.37,2013-01-11 01:04:00,
2013-01-10 20:09:00,38.1,17.6,30.24,ESE,112,8.7,10.9,43,0.00,CLR,,0.00,0.0,WeatherDisplay:10.37,2013-01-11 01:09:00,
2013-01-10 20:14:00,38.1,17.6,30.24,East,90,7.6,12.7,43,0.00,CLR,,0.00,0.0,WeatherDisplay:10.37,2013-01-11 01:14:00,
2013-01-10 20:19:00,38.1,17.6,30.24,ENE,68,7.6,12.7,43,0.00,CLR,,0.00,0.0,WeatherDisplay:10.37,2013-01-11 01:19:00,
2013-01-10 20:24:00,38.1,17.6,30.24,East,90,7.6,9.7,43,0.00,CLR,,0.00,0.0,WeatherDisplay:10.37,2013-01-11 01:24:00,
2013-01-10 20:29:00,38.1,17.6,30.24,East,90,8.3,15.0,43,0.00,CLR,,0.00,0.0,WeatherDisplay:10.37,2013-01-11 01:29:00,
2013-01-10 20:34:00,38.1,17.6,30.24,East,90,7.1,9.2,43,0.00,CLR,,0.00,0.0,WeatherDisplay:10.37,2013-01-11 01:34:00,
2013-01-10 20:39:00,38.1,17.6,30.21,East,90,6.7,10.4,43,0.00,CLR,,0.00,0.0,WeatherDisplay:10.37,2013-01-11 01:39:00,
2013-01-10 20:44:00,38.1,17.6,30.21,East,90,7.6,10.4,43,0.00,CLR,,0.00,0.0,WeatherDisplay:10.37,2013-01-11 01:44:00,
2013-01-10 20:49:00,38.1,17.6,30.21,East,90,9.2,10.4,43,0.00,CLR,,0.00,0.0,WeatherDisplay:10.37,2013-01-11 01:49:00,
2013-01-10 20:54:00,38.1,17.6,30.21,NE,45,8.7,11.5,43,0.00,CLR,,0.00,0.0,WeatherDisplay:10.37,2013-01-11 01:54:00,
2013-01-10 20:59:00,38.3,17.2,30.21,East,90,9.2,17.3,42,0.00,CLR,,0.00,0.0,WeatherDisplay:10.37,2013-01-11 01:59:00,
2013-01-10 21:04:00,38.5,17.3,30.21,ESE,112,8.1,9.7,42,0.00,CLR,,0.00,0.0,WeatherDisplay:10.37,2013-01-11 02:04:00,
2013-01-10 21:10:00,38.7,17.0,30.21,East,90,8.7,12.7,41,0.00,CLR,,0.00,0.0,WeatherDisplay:10.37,2013-01-11 02:10:00,
2013-01-10 21:15:00,38.8,17.1,30.21,East,90,9.7,10.4,41,0.00,CLR,,0.00,0.0,WeatherDisplay:10.37,2013-01-11 02:15:00,
2013-01-10 21:20:00,38.8,17.1,30.21,East,90,9.2,12.3,41,0.00,CLR,,0.00,0.0,WeatherDisplay:10.37,2013-01-11 02:20:00,
2013-01-10 21:25:00,38.8,17.1,30.21,East,90,7.6,13.8,41,0.00,CLR,,0.00,0.0,WeatherDisplay:10.37,2013-01-11 02:25:00,
2013-01-10 21:30:00,38.8,17.1,30.21,East,90,6.7,9.2,41,0.00,CLR,,0.00,0.0,WeatherDisplay:10.37,2013-01-11 02:30:00,
2013-01-10 21:35:00,38.8,17.1,30.21,ENE,68,6.7,13.8,41,0.00,CLR,,0.00,0.0,WeatherDisplay:10.37,2013-01-11 02:35:00,
2013-01-10 21:40:00,38.7,17.0,30.18,East,95,8.0,14.0,41,0.00,CLR,,0.00,0.0,WeatherDisplay:10.37,2013-01-11 02:40:00,
2013-01-10 21:45:00,38.7,17.0,30.18,ENE,68,8.7,12.7,41,0.00,CLR,,0.00,0.0,WeatherDisplay:10.37,2013-01-11 02:45:00,
2013-01-10 21:50:00,38.7,17.0,30.18,SE,135,8.3,10.4,41,0.00,CLR,,0.00,0.0,WeatherDisplay:10.37,2013-01-11 02:50:00,
2013-01-10 21:56:00,38.5,16.8,30.18,ENE,68,7.6,9.2,41,0.00,CLR,,0.00,0.0,WeatherDisplay:10.37,2013-01-11 02:56:00,
2013-01-10 22:01:00,38.5,16.8,30.18,East,90,7.1,9.2,41,0.00,CLR,,0.00,0.0,WeatherDisplay:10.37,2013-01-11 03:01:00,
2013-01-10 22:06:00,38.5,16.8,30.18,East,90,9.7,12.7,41,0.00,CLR,,0.00,0.0,WeatherDisplay:10.37,2013-01-11 03:06:00,
2013-01-10 22:11:00,38.5,16.8,30.15,East,90,8.7,11.5,41,0.00,CLR,,0.00,0.0,WeatherDisplay:10.37,2013-01-11 03:11:00,
2013-01-10 22:16:00,38.7,17.0,30.15,ENE,68,8.7,14.0,41,0.00,CLR,,0.00,0.0,WeatherDisplay:10.37,2013-01-11 03:16:00,
2013-01-10 22:21:00,38.8,16.5,30.15,ESE,112,8.1,12.7,40,0.00,CLR,,0.00,0.0,WeatherDisplay:10.37,2013-01-11 03:21:00,
2013-01-10 22:26:00,38.8,16.5,30.15,East,90,9.7,10.9,40,0.00,CLR,,0.00,0.0,WeatherDisplay:10.37,2013-01-11 03:26:00,
2013-01-10 22:31:00,39.2,16.9,30.15,East,90,9.2,11.5,40,0.00,CLR,,0.00,0.0,WeatherDisplay:10.37,2013-01-11 03:31:00,
2013-01-10 22:36:00,39.2,16.9,30.15,NE,45,7.1,12.3,40,0.00,CLR,,0.00,0.0,WeatherDisplay:10.37,2013-01-11 03:36:00,
2013-01-10 22:41:00,39.2,16.9,30.15,East,90,6.2,11.4,40,0.00,CLR,,0.00,0.0,WeatherDisplay:10.37,2013-01-11 03:41:00,
2013-01-10 22:46:00,39.2,16.9,30.15,East,90,7.1,8.1,40,0.00,CLR,,0.00,0.0,WeatherDisplay:10.37,2013-01-11 03:46:00,
2013-01-10 22:51:00,39.2,16.9,30.15,East,90,6.2,9.2,40,0.00,CLR,,0.00,0.0,WeatherDisplay:10.37,2013-01-11 03:51:00,
2013-01-10 22:56:00,39.2,16.9,30.15,East,90,8.7,8.7,40,0.00,CLR,,0.00,0.0,WeatherDisplay:10.37,2013-01-11 03:56:00,
2013-01-10 23:01:00,39.2,16.9,30.15,NE,45,8.7,13.8,40,0.00,CLR,,0.00,0.0,WeatherDisplay:10.37,2013-01-11 04:01:00,
2013-01-10 23:06:00,39.4,17.0,30.15,East,90,7.1,9.2,40,0.00,CLR,,0.00,0.0,WeatherDisplay:10.37,2013-01-11 04:06:00,
2013-01-10 23:11:00,39.4,17.0,30.15,SSE,158,6.7,13.8,40,0.00,CLR,,0.00,0.0,WeatherDisplay:10.37,2013-01-11 04:11:00,
2013-01-10 23:16:00,39.4,17.0,30.15,East,90,8.7,11.5,40,0.00,CLR,,0.00,0.0,WeatherDisplay:10.37,2013-01-11 04:16:00,
2013-01-10 23:21:00,39.2,16.9,30.15,East,90,7.1,11.5,40,0.00,CLR,,0.00,0.0,WeatherDisplay:10.37,2013-01-11 04:21:00,
2013-01-10 23:26:00,39.2,16.9,30.12,East,90,8.7,12.3,40,0.00,CLR,,0.00,0.0,WeatherDisplay:10.37,2013-01-11 04:26:00,
2013-01-10 23:31:00,39.4,17.0,30.12,SE,135,8.7,10.9,40,0.00,CLR,,0.00,0.0,WeatherDisplay:10.37,2013-01-11 04:31:00,
2013-01-10 23:36:00,39.6,16.6,30.12,ESE,112,8.7,8.7,39,0.00,CLR,,0.00,0.0,WeatherDisplay:10.37,2013-01-11 04:36:00,
2013-01-10 23:41:00,39.7,16.8,30.12,ENE,68,8.1,10.5,39,0.00,CLR,,0.00,0.0,WeatherDisplay:10.37,2013-01-11 04:41:00,
2013-01-10 23:46:00,39.7,16.8,30.12,ENE,68,7.1,13.8,39,0.00,CLR,,0.00,0.0,WeatherDisplay:10.37,2013-01-11 04:46:00,
2013-01-10 23:51:00,39.6,17.2,30.12,ESE,112,7.6,9.2,40,0.00,CLR,,0.00,0.0,WeatherDisplay:10.37,2013-01-11 04:51:00,
2013-01-10 23:56:00,39.6,17.2,30.09,East,90,8.1,10.4,40,0.00,CLR,,0.00,0.0,WeatherDisplay:10.37,2013-01-11 04:56:00,